sensor_id;sensor_type;location;lat;lon;timestamp;P1;durP1;ratioP1;P2;durP2;ratioP2
10381;SDS011;11635;53.636;10.120;2023-03-03T00:00:41;36.50;;;21.23;;
10381;SDS011;11635;53.636;10.120;2023-03-03T00:03:09;42.70;;;21.63;;
10381;SDS011;11635;53.636;10.120;2023-03-03T00:05:36;35.25;;;20.77;;
10381;SDS011;11635;53.636;10.120;2023-03-03T00:08:02;43.08;;;22.60;;
10381;SDS011;11635;53.636;10.120;2023-03-03T00:10:29;40.28;;;21.15;;
10381;SDS011;11635;53.636;10.120;2023-03-03T00:12:57;40.53;;;22.73;;
10381;SDS011;11635;53.636;10.120;2023-03-03T00:15:24;42.78;;;23.13;;
10381;SDS011;11635;53.636;10.120;2023-03-03T00:17:51;41.45;;;22.48;;
10381;SDS011;11635;53.636;10.120;2023-03-03T00:20:32;40.35;;;24.10;;
10381;SDS011;11635;53.636;10.120;2023-03-03T00:23:04;46.55;;;25.98;;
10381;SDS011;11635;53.636;10.120;2023-03-03T00:25:33;42.05;;;27.20;;
10381;SDS011;11635;53.636;10.120;2023-03-03T00:28:01;42.40;;;27.48;;
10381;SDS011;11635;53.636;10.120;2023-03-03T00:30:32;63.13;;;28.00;;
10381;SDS011;11635;53.636;10.120;2023-03-03T00:32:58;42.63;;;27.60;;
10381;SDS011;11635;53.636;10.120;2023-03-03T00:35:25;40.22;;;23.17;;
10381;SDS011;11635;53.636;10.120;2023-03-03T00:37:54;39.83;;;22.05;;
10381;SDS011;11635;53.636;10.120;2023-03-03T00:40:22;49.63;;;27.92;;
10381;SDS011;11635;53.636;10.120;2023-03-03T00:42:49;47.72;;;21.80;;
10381;SDS011;11635;53.636;10.120;2023-03-03T00:48:10;50.10;;;22.85;;
10381;SDS011;11635;53.636;10.120;2023-03-03T00:50:42;48.63;;;25.45;;
10381;SDS011;11635;53.636;10.120;2023-03-03T00:53:10;39.35;;;21.40;;
10381;SDS011;11635;53.636;10.120;2023-03-03T00:55:36;57.33;;;26.88;;
10381;SDS011;11635;53.636;10.120;2023-03-03T00:58:04;43.53;;;26.02;;
10381;SDS011;11635;53.636;10.120;2023-03-03T01:00:31;48.95;;;27.17;;
10381;SDS011;11635;53.636;10.120;2023-03-03T01:02:58;44.08;;;22.75;;
10381;SDS011;11635;53.636;10.120;2023-03-03T01:05:26;56.70;;;23.13;;
10381;SDS011;11635;53.636;10.120;2023-03-03T01:07:52;43.08;;;24.73;;
10381;SDS011;11635;53.636;10.120;2023-03-03T01:10:19;40.55;;;21.15;;
10381;SDS011;11635;53.636;10.120;2023-03-03T01:12:45;44.42;;;26.23;;
10381;SDS011;11635;53.636;10.120;2023-03-03T01:15:13;45.80;;;26.42;;
10381;SDS011;11635;53.636;10.120;2023-03-03T01:17:39;39.42;;;22.73;;
10381;SDS011;11635;53.636;10.120;2023-03-03T01:20:06;50.03;;;22.70;;
10381;SDS011;11635;53.636;10.120;2023-03-03T01:22:34;67.22;;;26.95;;
10381;SDS011;11635;53.636;10.120;2023-03-03T01:25:01;52.10;;;28.60;;
10381;SDS011;11635;53.636;10.120;2023-03-03T01:27:28;46.33;;;26.33;;
10381;SDS011;11635;53.636;10.120;2023-03-03T01:29:55;67.82;;;28.45;;
10381;SDS011;11635;53.636;10.120;2023-03-03T01:32:21;53.58;;;29.48;;
10381;SDS011;11635;53.636;10.120;2023-03-03T01:34:48;55.63;;;23.75;;
10381;SDS011;11635;53.636;10.120;2023-03-03T01:37:14;47.42;;;26.60;;
10381;SDS011;11635;53.636;10.120;2023-03-03T01:39:42;62.67;;;28.10;;
10381;SDS011;11635;53.636;10.120;2023-03-03T01:42:12;41.50;;;23.85;;
10381;SDS011;11635;53.636;10.120;2023-03-03T01:44:39;45.70;;;28.10;;
10381;SDS011;11635;53.636;10.120;2023-03-03T01:47:06;47.97;;;28.33;;
10381;SDS011;11635;53.636;10.120;2023-03-03T01:49:35;49.42;;;27.23;;
10381;SDS011;11635;53.636;10.120;2023-03-03T01:52:04;37.88;;;22.88;;
10381;SDS011;11635;53.636;10.120;2023-03-03T01:54:37;47.83;;;24.13;;
10381;SDS011;11635;53.636;10.120;2023-03-03T01:57:08;52.45;;;28.30;;
10381;SDS011;11635;53.636;10.120;2023-03-03T01:59:36;41.20;;;22.55;;
10381;SDS011;11635;53.636;10.120;2023-03-03T02:02:05;39.22;;;26.80;;
10381;SDS011;11635;53.636;10.120;2023-03-03T02:04:32;40.53;;;25.45;;
10381;SDS011;11635;53.636;10.120;2023-03-03T02:07:00;47.53;;;25.67;;
10381;SDS011;11635;53.636;10.120;2023-03-03T02:09:29;60.63;;;25.33;;
10381;SDS011;11635;53.636;10.120;2023-03-03T02:11:59;32.88;;;23.33;;
10381;SDS011;11635;53.636;10.120;2023-03-03T02:14:27;34.95;;;24.83;;
10381;SDS011;11635;53.636;10.120;2023-03-03T02:16:54;53.22;;;26.27;;
10381;SDS011;11635;53.636;10.120;2023-03-03T02:19:21;51.63;;;26.33;;
10381;SDS011;11635;53.636;10.120;2023-03-03T02:21:50;51.58;;;25.80;;
10381;SDS011;11635;53.636;10.120;2023-03-03T02:24:19;36.67;;;22.85;;
10381;SDS011;11635;53.636;10.120;2023-03-03T02:26:47;55.97;;;25.65;;
10381;SDS011;11635;53.636;10.120;2023-03-03T02:29:13;36.67;;;26.52;;
10381;SDS011;11635;53.636;10.120;2023-03-03T02:31:40;41.45;;;26.30;;
10381;SDS011;11635;53.636;10.120;2023-03-03T02:34:07;45.42;;;25.27;;
10381;SDS011;11635;53.636;10.120;2023-03-03T02:36:34;49.35;;;22.50;;
10381;SDS011;11635;53.636;10.120;2023-03-03T02:39:02;41.95;;;26.35;;
10381;SDS011;11635;53.636;10.120;2023-03-03T02:41:31;33.55;;;24.88;;
10381;SDS011;11635;53.636;10.120;2023-03-03T02:44:01;37.58;;;25.50;;
10381;SDS011;11635;53.636;10.120;2023-03-03T02:46:29;34.50;;;25.83;;
10381;SDS011;11635;53.636;10.120;2023-03-03T02:48:57;33.08;;;20.88;;
10381;SDS011;11635;53.636;10.120;2023-03-03T02:51:23;38.15;;;25.48;;
10381;SDS011;11635;53.636;10.120;2023-03-03T02:53:50;40.15;;;26.25;;
10381;SDS011;11635;53.636;10.120;2023-03-03T02:56:16;53.85;;;26.70;;
10381;SDS011;11635;53.636;10.120;2023-03-03T02:58:43;46.67;;;22.55;;
10381;SDS011;11635;53.636;10.120;2023-03-03T03:01:10;34.38;;;21.50;;
10381;SDS011;11635;53.636;10.120;2023-03-03T03:03:37;37.25;;;25.10;;
10381;SDS011;11635;53.636;10.120;2023-03-03T03:06:04;36.78;;;25.13;;
10381;SDS011;11635;53.636;10.120;2023-03-03T03:08:31;33.42;;;19.77;;
10381;SDS011;11635;53.636;10.120;2023-03-03T03:10:57;32.22;;;22.63;;
10381;SDS011;11635;53.636;10.120;2023-03-03T03:13:23;35.47;;;23.88;;
10381;SDS011;11635;53.636;10.120;2023-03-03T03:15:50;31.00;;;22.88;;
10381;SDS011;11635;53.636;10.120;2023-03-03T03:18:18;32.38;;;24.58;;
10381;SDS011;11635;53.636;10.120;2023-03-03T03:20:44;31.88;;;23.88;;
10381;SDS011;11635;53.636;10.120;2023-03-03T03:23:11;28.67;;;19.63;;
10381;SDS011;11635;53.636;10.120;2023-03-03T03:25:37;28.92;;;22.77;;
10381;SDS011;11635;53.636;10.120;2023-03-03T03:28:09;28.73;;;22.05;;
10381;SDS011;11635;53.636;10.120;2023-03-03T03:30:35;30.77;;;21.98;;
10381;SDS011;11635;53.636;10.120;2023-03-03T03:33:02;26.65;;;21.83;;
10381;SDS011;11635;53.636;10.120;2023-03-03T03:35:30;34.22;;;22.08;;
10381;SDS011;11635;53.636;10.120;2023-03-03T03:37:57;28.17;;;22.23;;
10381;SDS011;11635;53.636;10.120;2023-03-03T03:40:23;30.20;;;18.40;;
10381;SDS011;11635;53.636;10.120;2023-03-03T03:42:50;26.23;;;19.27;;
10381;SDS011;11635;53.636;10.120;2023-03-03T03:45:17;28.30;;;18.90;;
10381;SDS011;11635;53.636;10.120;2023-03-03T03:47:43;27.77;;;22.38;;
10381;SDS011;11635;53.636;10.120;2023-03-03T03:50:10;34.90;;;22.55;;
10381;SDS011;11635;53.636;10.120;2023-03-03T03:52:38;41.08;;;22.98;;
10381;SDS011;11635;53.636;10.120;2023-03-03T03:55:05;32.53;;;20.45;;
10381;SDS011;11635;53.636;10.120;2023-03-03T03:57:31;40.90;;;19.73;;
10381;SDS011;11635;53.636;10.120;2023-03-03T03:59:58;43.42;;;20.48;;
10381;SDS011;11635;53.636;10.120;2023-03-03T04:02:24;36.58;;;19.58;;
10381;SDS011;11635;53.636;10.120;2023-03-03T04:04:50;27.98;;;19.58;;
10381;SDS011;11635;53.636;10.120;2023-03-03T04:07:17;39.78;;;20.33;;
10381;SDS011;11635;53.636;10.120;2023-03-03T04:09:45;40.67;;;23.30;;
10381;SDS011;11635;53.636;10.120;2023-03-03T04:12:11;26.35;;;18.73;;
10381;SDS011;11635;53.636;10.120;2023-03-03T04:14:38;28.88;;;18.38;;
10381;SDS011;11635;53.636;10.120;2023-03-03T04:17:04;28.80;;;22.40;;
10381;SDS011;11635;53.636;10.120;2023-03-03T04:19:31;25.55;;;20.90;;
10381;SDS011;11635;53.636;10.120;2023-03-03T04:21:57;25.13;;;17.33;;
10381;SDS011;11635;53.636;10.120;2023-03-03T04:24:24;28.58;;;18.50;;
10381;SDS011;11635;53.636;10.120;2023-03-03T04:26:51;26.17;;;17.77;;
10381;SDS011;11635;53.636;10.120;2023-03-03T04:29:18;27.05;;;17.98;;
10381;SDS011;11635;53.636;10.120;2023-03-03T04:31:44;27.10;;;20.77;;
10381;SDS011;11635;53.636;10.120;2023-03-03T04:34:11;24.13;;;17.58;;
10381;SDS011;11635;53.636;10.120;2023-03-03T04:36:37;22.10;;;16.60;;
10381;SDS011;11635;53.636;10.120;2023-03-03T04:39:03;26.50;;;17.55;;
10381;SDS011;11635;53.636;10.120;2023-03-03T04:41:30;28.05;;;21.27;;
10381;SDS011;11635;53.636;10.120;2023-03-03T04:43:58;28.10;;;21.42;;
10381;SDS011;11635;53.636;10.120;2023-03-03T04:46:24;26.17;;;17.38;;
10381;SDS011;11635;53.636;10.120;2023-03-03T04:48:51;26.98;;;17.88;;
10381;SDS011;11635;53.636;10.120;2023-03-03T04:51:17;29.48;;;22.15;;
10381;SDS011;11635;53.636;10.120;2023-03-03T04:53:43;27.27;;;17.92;;
10381;SDS011;11635;53.636;10.120;2023-03-03T04:56:10;35.40;;;22.27;;
10381;SDS011;11635;53.636;10.120;2023-03-03T04:58:36;27.13;;;22.17;;
10381;SDS011;11635;53.636;10.120;2023-03-03T05:01:04;30.58;;;19.23;;
10381;SDS011;11635;53.636;10.120;2023-03-03T05:03:30;32.28;;;19.83;;
10381;SDS011;11635;53.636;10.120;2023-03-03T05:05:57;36.90;;;18.55;;
10381;SDS011;11635;53.636;10.120;2023-03-03T05:08:23;28.48;;;19.92;;
10381;SDS011;11635;53.636;10.120;2023-03-03T05:10:50;27.90;;;19.25;;
10381;SDS011;11635;53.636;10.120;2023-03-03T05:13:17;35.83;;;19.55;;
10381;SDS011;11635;53.636;10.120;2023-03-03T05:15:47;29.52;;;19.90;;
10381;SDS011;11635;53.636;10.120;2023-03-03T05:18:15;33.85;;;20.55;;
10381;SDS011;11635;53.636;10.120;2023-03-03T05:20:41;30.70;;;19.20;;
10381;SDS011;11635;53.636;10.120;2023-03-03T05:23:08;49.42;;;20.45;;
10381;SDS011;11635;53.636;10.120;2023-03-03T05:25:34;29.52;;;18.88;;
10381;SDS011;11635;53.636;10.120;2023-03-03T05:28:01;29.08;;;19.35;;
10381;SDS011;11635;53.636;10.120;2023-03-03T05:30:28;42.25;;;21.10;;
10381;SDS011;11635;53.636;10.120;2023-03-03T05:32:55;36.47;;;20.73;;
10381;SDS011;11635;53.636;10.120;2023-03-03T05:35:24;30.92;;;19.67;;
10381;SDS011;11635;53.636;10.120;2023-03-03T05:37:51;32.65;;;19.63;;
10381;SDS011;11635;53.636;10.120;2023-03-03T05:40:18;39.63;;;19.65;;
10381;SDS011;11635;53.636;10.120;2023-03-03T05:42:45;33.33;;;19.92;;
10381;SDS011;11635;53.636;10.120;2023-03-03T05:45:21;31.27;;;18.77;;
10381;SDS011;11635;53.636;10.120;2023-03-03T05:47:49;32.88;;;18.55;;
10381;SDS011;11635;53.636;10.120;2023-03-03T05:50:15;38.38;;;20.35;;
10381;SDS011;11635;53.636;10.120;2023-03-03T05:52:43;31.77;;;18.60;;
10381;SDS011;11635;53.636;10.120;2023-03-03T05:55:12;44.47;;;19.95;;
10381;SDS011;11635;53.636;10.120;2023-03-03T05:57:39;49.13;;;21.55;;
10381;SDS011;11635;53.636;10.120;2023-03-03T06:00:06;34.00;;;20.20;;
10381;SDS011;11635;53.636;10.120;2023-03-03T06:02:33;33.05;;;20.42;;
10381;SDS011;11635;53.636;10.120;2023-03-03T06:05:00;39.50;;;20.33;;
10381;SDS011;11635;53.636;10.120;2023-03-03T06:07:26;35.20;;;20.88;;
10381;SDS011;11635;53.636;10.120;2023-03-03T06:09:54;34.85;;;21.17;;
10381;SDS011;11635;53.636;10.120;2023-03-03T06:12:21;33.22;;;19.55;;
10381;SDS011;11635;53.636;10.120;2023-03-03T06:14:47;38.47;;;20.25;;
10381;SDS011;11635;53.636;10.120;2023-03-03T06:17:14;31.67;;;20.60;;
10381;SDS011;11635;53.636;10.120;2023-03-03T06:19:41;38.60;;;19.92;;
10381;SDS011;11635;53.636;10.120;2023-03-03T06:22:08;39.13;;;21.27;;
10381;SDS011;11635;53.636;10.120;2023-03-03T06:24:37;32.85;;;19.55;;
10381;SDS011;11635;53.636;10.120;2023-03-03T06:27:06;33.20;;;19.30;;
10381;SDS011;11635;53.636;10.120;2023-03-03T06:29:33;42.72;;;20.70;;
10381;SDS011;11635;53.636;10.120;2023-03-03T06:32:02;33.13;;;19.88;;
10381;SDS011;11635;53.636;10.120;2023-03-03T06:34:39;46.10;;;19.98;;
10381;SDS011;11635;53.636;10.120;2023-03-03T06:37:20;37.53;;;19.45;;
10381;SDS011;11635;53.636;10.120;2023-03-03T06:40:00;31.63;;;20.05;;
10381;SDS011;11635;53.636;10.120;2023-03-03T06:42:45;36.70;;;19.30;;
10381;SDS011;11635;53.636;10.120;2023-03-03T06:45:30;32.08;;;19.27;;
10381;SDS011;11635;53.636;10.120;2023-03-03T06:47:58;31.30;;;20.40;;
10381;SDS011;11635;53.636;10.120;2023-03-03T06:50:25;31.67;;;19.48;;
10381;SDS011;11635;53.636;10.120;2023-03-03T06:52:53;35.20;;;19.02;;
10381;SDS011;11635;53.636;10.120;2023-03-03T06:55:25;31.73;;;18.85;;
10381;SDS011;11635;53.636;10.120;2023-03-03T06:57:53;29.15;;;17.95;;
10381;SDS011;11635;53.636;10.120;2023-03-03T07:00:22;33.03;;;18.75;;
10381;SDS011;11635;53.636;10.120;2023-03-03T07:02:50;30.50;;;22.98;;
10381;SDS011;11635;53.636;10.120;2023-03-03T07:05:19;28.92;;;17.58;;
10381;SDS011;11635;53.636;10.120;2023-03-03T07:07:45;32.03;;;19.55;;
10381;SDS011;11635;53.636;10.120;2023-03-03T07:10:15;34.33;;;19.33;;
10381;SDS011;11635;53.636;10.120;2023-03-03T07:12:43;31.33;;;22.70;;
10381;SDS011;11635;53.636;10.120;2023-03-03T07:15:14;28.58;;;19.40;;
10381;SDS011;11635;53.636;10.120;2023-03-03T07:17:43;30.50;;;23.60;;
10381;SDS011;11635;53.636;10.120;2023-03-03T07:20:10;29.92;;;19.63;;
10381;SDS011;11635;53.636;10.120;2023-03-03T07:22:40;25.40;;;18.13;;
10381;SDS011;11635;53.636;10.120;2023-03-03T07:25:12;30.55;;;22.13;;
10381;SDS011;11635;53.636;10.120;2023-03-03T07:27:52;28.23;;;21.35;;
10381;SDS011;11635;53.636;10.120;2023-03-03T07:30:42;32.90;;;22.48;;
10381;SDS011;11635;53.636;10.120;2023-03-03T07:33:13;27.83;;;17.88;;
10381;SDS011;11635;53.636;10.120;2023-03-03T07:35:43;28.13;;;21.55;;
10381;SDS011;11635;53.636;10.120;2023-03-03T07:38:16;26.33;;;16.92;;
10381;SDS011;11635;53.636;10.120;2023-03-03T07:40:47;25.42;;;21.30;;
10381;SDS011;11635;53.636;10.120;2023-03-03T07:43:16;24.50;;;16.83;;
10381;SDS011;11635;53.636;10.120;2023-03-03T07:45:50;29.77;;;20.70;;
10381;SDS011;11635;53.636;10.120;2023-03-03T07:48:29;27.92;;;21.20;;
10381;SDS011;11635;53.636;10.120;2023-03-03T07:50:57;24.98;;;15.70;;
10381;SDS011;11635;53.636;10.120;2023-03-03T07:53:28;28.17;;;19.27;;
10381;SDS011;11635;53.636;10.120;2023-03-03T07:55:58;27.02;;;18.33;;
10381;SDS011;11635;53.636;10.120;2023-03-03T07:58:26;21.85;;;18.50;;
10381;SDS011;11635;53.636;10.120;2023-03-03T08:03:39;22.92;;;17.20;;
10381;SDS011;11635;53.636;10.120;2023-03-03T08:06:08;27.35;;;18.20;;
10381;SDS011;11635;53.636;10.120;2023-03-03T08:08:45;27.60;;;19.10;;
10381;SDS011;11635;53.636;10.120;2023-03-03T08:11:11;30.88;;;18.75;;
10381;SDS011;11635;53.636;10.120;2023-03-03T08:13:39;28.92;;;19.38;;
10381;SDS011;11635;53.636;10.120;2023-03-03T08:16:19;27.15;;;19.17;;
10381;SDS011;11635;53.636;10.120;2023-03-03T08:18:50;29.80;;;19.63;;
10381;SDS011;11635;53.636;10.120;2023-03-03T08:21:18;24.50;;;19.00;;
10381;SDS011;11635;53.636;10.120;2023-03-03T08:23:44;24.42;;;19.33;;
10381;SDS011;11635;53.636;10.120;2023-03-03T08:26:13;21.60;;;17.10;;
10381;SDS011;11635;53.636;10.120;2023-03-03T08:28:41;22.17;;;18.13;;
10381;SDS011;11635;53.636;10.120;2023-03-03T08:31:07;32.03;;;18.05;;
10381;SDS011;11635;53.636;10.120;2023-03-03T08:33:33;27.08;;;19.17;;
10381;SDS011;11635;53.636;10.120;2023-03-03T08:36:01;23.00;;;17.80;;
10381;SDS011;11635;53.636;10.120;2023-03-03T08:38:28;22.35;;;17.38;;
10381;SDS011;11635;53.636;10.120;2023-03-03T08:40:54;21.42;;;17.65;;
10381;SDS011;11635;53.636;10.120;2023-03-03T08:43:21;22.13;;;16.70;;
10381;SDS011;11635;53.636;10.120;2023-03-03T08:45:49;21.30;;;16.77;;
10381;SDS011;11635;53.636;10.120;2023-03-03T08:48:16;22.15;;;15.90;;
10381;SDS011;11635;53.636;10.120;2023-03-03T08:50:43;18.83;;;15.80;;
10381;SDS011;11635;53.636;10.120;2023-03-03T08:53:11;19.17;;;14.95;;
10381;SDS011;11635;53.636;10.120;2023-03-03T08:55:38;20.70;;;15.88;;
10381;SDS011;11635;53.636;10.120;2023-03-03T08:58:05;23.63;;;16.33;;
10381;SDS011;11635;53.636;10.120;2023-03-03T09:00:31;25.27;;;14.35;;
10381;SDS011;11635;53.636;10.120;2023-03-03T09:02:58;21.02;;;15.30;;
10381;SDS011;11635;53.636;10.120;2023-03-03T09:05:25;17.70;;;14.50;;
10381;SDS011;11635;53.636;10.120;2023-03-03T09:07:51;18.48;;;13.85;;
10381;SDS011;11635;53.636;10.120;2023-03-03T09:10:21;19.35;;;14.45;;
10381;SDS011;11635;53.636;10.120;2023-03-03T09:12:53;17.60;;;13.60;;
10381;SDS011;11635;53.636;10.120;2023-03-03T09:15:23;17.85;;;13.15;;
10381;SDS011;11635;53.636;10.120;2023-03-03T09:17:50;17.67;;;12.98;;
10381;SDS011;11635;53.636;10.120;2023-03-03T09:20:20;17.98;;;12.77;;
10381;SDS011;11635;53.636;10.120;2023-03-03T09:22:47;15.30;;;12.23;;
10381;SDS011;11635;53.636;10.120;2023-03-03T09:25:17;20.38;;;13.15;;
10381;SDS011;11635;53.636;10.120;2023-03-03T09:27:47;21.33;;;13.50;;
10381;SDS011;11635;53.636;10.120;2023-03-03T09:30:20;16.48;;;12.38;;
10381;SDS011;11635;53.636;10.120;2023-03-03T09:32:52;18.08;;;12.27;;
10381;SDS011;11635;53.636;10.120;2023-03-03T09:35:33;15.38;;;12.52;;
10381;SDS011;11635;53.636;10.120;2023-03-03T09:38:01;15.88;;;11.88;;
10381;SDS011;11635;53.636;10.120;2023-03-03T09:40:38;13.15;;;11.75;;
10381;SDS011;11635;53.636;10.120;2023-03-03T09:43:12;15.27;;;12.15;;
10381;SDS011;11635;53.636;10.120;2023-03-03T09:45:40;13.57;;;10.95;;
10381;SDS011;11635;53.636;10.120;2023-03-03T09:48:23;15.75;;;9.63;;
10381;SDS011;11635;53.636;10.120;2023-03-03T09:50:54;15.63;;;11.82;;
10381;SDS011;11635;53.636;10.120;2023-03-03T09:53:30;16.05;;;9.93;;
10381;SDS011;11635;53.636;10.120;2023-03-03T09:56:00;14.52;;;10.82;;
10381;SDS011;11635;53.636;10.120;2023-03-03T09:58:33;15.52;;;11.00;;
10381;SDS011;11635;53.636;10.120;2023-03-03T10:01:14;14.63;;;11.20;;
10381;SDS011;11635;53.636;10.120;2023-03-03T10:04:02;13.27;;;10.68;;
10381;SDS011;11635;53.636;10.120;2023-03-03T10:06:32;15.57;;;10.05;;
10381;SDS011;11635;53.636;10.120;2023-03-03T10:09:04;16.83;;;11.68;;
10381;SDS011;11635;53.636;10.120;2023-03-03T10:11:34;14.85;;;11.13;;
10381;SDS011;11635;53.636;10.120;2023-03-03T10:14:09;14.50;;;10.43;;
10381;SDS011;11635;53.636;10.120;2023-03-03T10:16:43;14.23;;;10.75;;
10381;SDS011;11635;53.636;10.120;2023-03-03T10:19:14;13.10;;;11.15;;
10381;SDS011;11635;53.636;10.120;2023-03-03T10:21:45;14.68;;;9.65;;
10381;SDS011;11635;53.636;10.120;2023-03-03T10:24:18;15.43;;;11.98;;
10381;SDS011;11635;53.636;10.120;2023-03-03T10:26:50;17.60;;;10.55;;
10381;SDS011;11635;53.636;10.120;2023-03-03T10:29:27;14.77;;;10.10;;
10381;SDS011;11635;53.636;10.120;2023-03-03T10:32:05;14.50;;;9.60;;
10381;SDS011;11635;53.636;10.120;2023-03-03T10:34:45;17.63;;;9.77;;
10381;SDS011;11635;53.636;10.120;2023-03-03T10:37:16;18.00;;;10.02;;
10381;SDS011;11635;53.636;10.120;2023-03-03T10:39:50;21.33;;;11.15;;
10381;SDS011;11635;53.636;10.120;2023-03-03T10:42:23;18.52;;;11.43;;
10381;SDS011;11635;53.636;10.120;2023-03-03T10:45:01;17.60;;;11.40;;
10381;SDS011;11635;53.636;10.120;2023-03-03T10:47:41;17.30;;;10.10;;
10381;SDS011;11635;53.636;10.120;2023-03-03T10:50:16;16.77;;;11.38;;
10381;SDS011;11635;53.636;10.120;2023-03-03T10:52:47;21.60;;;12.43;;
10381;SDS011;11635;53.636;10.120;2023-03-03T10:58:18;20.48;;;12.48;;
10381;SDS011;11635;53.636;10.120;2023-03-03T11:00:48;27.92;;;13.35;;
10381;SDS011;11635;53.636;10.120;2023-03-03T11:03:31;28.13;;;12.50;;
10381;SDS011;11635;53.636;10.120;2023-03-03T11:06:01;25.02;;;14.00;;
10381;SDS011;11635;53.636;10.120;2023-03-03T11:08:32;18.67;;;12.13;;
10381;SDS011;11635;53.636;10.120;2023-03-03T11:11:04;20.00;;;12.73;;
10381;SDS011;11635;53.636;10.120;2023-03-03T11:13:35;21.92;;;12.65;;
10381;SDS011;11635;53.636;10.120;2023-03-03T11:16:08;27.17;;;14.35;;
10381;SDS011;11635;53.636;10.120;2023-03-03T11:18:45;21.80;;;13.00;;
10381;SDS011;11635;53.636;10.120;2023-03-03T11:21:15;20.35;;;12.98;;
10381;SDS011;11635;53.636;10.120;2023-03-03T11:23:51;24.45;;;14.57;;
10381;SDS011;11635;53.636;10.120;2023-03-03T11:26:21;21.48;;;13.07;;
10381;SDS011;11635;53.636;10.120;2023-03-03T11:28:54;26.58;;;13.50;;
10381;SDS011;11635;53.636;10.120;2023-03-03T11:31:31;19.98;;;12.25;;
10381;SDS011;11635;53.636;10.120;2023-03-03T11:34:05;22.45;;;13.05;;
10381;SDS011;11635;53.636;10.120;2023-03-03T11:36:40;20.65;;;12.52;;
10381;SDS011;11635;53.636;10.120;2023-03-03T11:39:09;22.00;;;12.68;;
10381;SDS011;11635;53.636;10.120;2023-03-03T11:41:38;21.38;;;12.35;;
10381;SDS011;11635;53.636;10.120;2023-03-03T11:44:12;24.15;;;14.07;;
10381;SDS011;11635;53.636;10.120;2023-03-03T11:46:44;22.75;;;14.98;;
10381;SDS011;11635;53.636;10.120;2023-03-03T11:49:13;22.95;;;13.20;;
10381;SDS011;11635;53.636;10.120;2023-03-03T11:51:43;20.95;;;12.30;;
10381;SDS011;11635;53.636;10.120;2023-03-03T11:54:14;23.58;;;13.25;;
10381;SDS011;11635;53.636;10.120;2023-03-03T11:56:43;19.58;;;13.00;;
10381;SDS011;11635;53.636;10.120;2023-03-03T11:59:24;22.42;;;14.25;;
10381;SDS011;11635;53.636;10.120;2023-03-03T12:01:59;25.13;;;13.50;;
10381;SDS011;11635;53.636;10.120;2023-03-03T12:04:28;22.75;;;12.77;;
10381;SDS011;11635;53.636;10.120;2023-03-03T12:07:02;22.33;;;14.13;;
10381;SDS011;11635;53.636;10.120;2023-03-03T12:09:35;22.48;;;14.38;;
10381;SDS011;11635;53.636;10.120;2023-03-03T12:12:04;19.30;;;13.05;;
10381;SDS011;11635;53.636;10.120;2023-03-03T12:14:48;25.08;;;14.52;;
10381;SDS011;11635;53.636;10.120;2023-03-03T12:17:23;28.58;;;15.55;;
10381;SDS011;11635;53.636;10.120;2023-03-03T12:19:54;24.20;;;13.98;;
10381;SDS011;11635;53.636;10.120;2023-03-03T12:22:26;24.58;;;15.35;;
10381;SDS011;11635;53.636;10.120;2023-03-03T12:27:44;22.63;;;15.10;;
10381;SDS011;11635;53.636;10.120;2023-03-03T12:30:17;22.95;;;14.10;;
10381;SDS011;11635;53.636;10.120;2023-03-03T12:32:50;20.23;;;14.68;;
10381;SDS011;11635;53.636;10.120;2023-03-03T12:35:25;20.90;;;13.30;;
10381;SDS011;11635;53.636;10.120;2023-03-03T12:37:54;16.58;;;11.68;;
10381;SDS011;11635;53.636;10.120;2023-03-03T12:40:24;18.75;;;11.68;;
10381;SDS011;11635;53.636;10.120;2023-03-03T12:43:00;16.50;;;11.77;;
10381;SDS011;11635;53.636;10.120;2023-03-03T12:45:42;14.90;;;10.18;;
10381;SDS011;11635;53.636;10.120;2023-03-03T12:48:13;15.73;;;10.45;;
10381;SDS011;11635;53.636;10.120;2023-03-03T12:50:43;16.00;;;10.80;;
10381;SDS011;11635;53.636;10.120;2023-03-03T12:53:21;16.17;;;10.35;;
10381;SDS011;11635;53.636;10.120;2023-03-03T12:55:51;16.02;;;9.00;;
10381;SDS011;11635;53.636;10.120;2023-03-03T12:58:22;16.33;;;9.68;;
10381;SDS011;11635;53.636;10.120;2023-03-03T13:00:51;13.73;;;9.35;;
10381;SDS011;11635;53.636;10.120;2023-03-03T13:03:25;15.05;;;9.82;;
10381;SDS011;11635;53.636;10.120;2023-03-03T13:05:59;16.80;;;9.38;;
10381;SDS011;11635;53.636;10.120;2023-03-03T13:08:29;16.08;;;9.18;;
10381;SDS011;11635;53.636;10.120;2023-03-03T13:11:00;12.93;;;9.00;;
10381;SDS011;11635;53.636;10.120;2023-03-03T13:13:30;13.23;;;8.23;;
10381;SDS011;11635;53.636;10.120;2023-03-03T13:16:00;10.93;;;7.32;;
10381;SDS011;11635;53.636;10.120;2023-03-03T13:18:33;11.00;;;7.20;;
10381;SDS011;11635;53.636;10.120;2023-03-03T13:21:03;11.27;;;6.88;;
10381;SDS011;11635;53.636;10.120;2023-03-03T13:23:38;9.88;;;6.35;;
10381;SDS011;11635;53.636;10.120;2023-03-03T13:26:09;11.45;;;6.38;;
10381;SDS011;11635;53.636;10.120;2023-03-03T13:28:37;9.05;;;5.50;;
10381;SDS011;11635;53.636;10.120;2023-03-03T13:31:07;7.68;;;5.20;;
10381;SDS011;11635;53.636;10.120;2023-03-03T13:33:41;8.98;;;5.72;;
10381;SDS011;11635;53.636;10.120;2023-03-03T13:36:13;8.30;;;4.95;;
10381;SDS011;11635;53.636;10.120;2023-03-03T13:38:40;10.48;;;5.10;;
10381;SDS011;11635;53.636;10.120;2023-03-03T13:41:09;7.72;;;4.70;;
10381;SDS011;11635;53.636;10.120;2023-03-03T13:43:42;7.95;;;4.50;;
10381;SDS011;11635;53.636;10.120;2023-03-03T13:46:13;10.63;;;4.22;;
10381;SDS011;11635;53.636;10.120;2023-03-03T13:48:49;8.25;;;4.15;;
10381;SDS011;11635;53.636;10.120;2023-03-03T13:51:23;10.32;;;4.20;;
10381;SDS011;11635;53.636;10.120;2023-03-03T13:53:51;8.18;;;3.45;;
10381;SDS011;11635;53.636;10.120;2023-03-03T13:56:32;5.75;;;3.35;;
10381;SDS011;11635;53.636;10.120;2023-03-03T13:59:01;8.00;;;4.18;;
10381;SDS011;11635;53.636;10.120;2023-03-03T14:01:30;6.28;;;3.35;;
10381;SDS011;11635;53.636;10.120;2023-03-03T14:04:07;8.27;;;3.20;;
10381;SDS011;11635;53.636;10.120;2023-03-03T14:06:35;7.80;;;2.95;;
10381;SDS011;11635;53.636;10.120;2023-03-03T14:09:08;4.78;;;2.67;;
10381;SDS011;11635;53.636;10.120;2023-03-03T14:11:37;3.03;;;2.20;;
10381;SDS011;11635;53.636;10.120;2023-03-03T14:14:10;4.07;;;2.28;;
10381;SDS011;11635;53.636;10.120;2023-03-03T14:16:44;7.38;;;1.90;;
10381;SDS011;11635;53.636;10.120;2023-03-03T14:19:16;2.85;;;1.83;;
10381;SDS011;11635;53.636;10.120;2023-03-03T14:21:45;4.20;;;1.65;;
10381;SDS011;11635;53.636;10.120;2023-03-03T14:24:14;4.97;;;1.75;;
10381;SDS011;11635;53.636;10.120;2023-03-03T14:26:46;5.07;;;1.65;;
10381;SDS011;11635;53.636;10.120;2023-03-03T14:29:18;3.33;;;1.42;;
10381;SDS011;11635;53.636;10.120;2023-03-03T14:31:45;3.50;;;1.75;;
10381;SDS011;11635;53.636;10.120;2023-03-03T14:34:24;3.15;;;1.80;;
10381;SDS011;11635;53.636;10.120;2023-03-03T14:36:56;4.82;;;1.90;;